PWSweather.com
Personal Weather Stations
Station Observations
IMAZOWIE6
WarszawaPL

WarszawaPL

Lat: 52.27957, Lon: 21.05489

Elevation: 100

Station Type: WS1080

http://stacjapogody.waw.pl/

High Low Average
Temperature 86.9°F30.5°F 68.4°F20.2°F 75.3°F24.1°F
Dew Point 43.3°F6.3°F -165.8°F-109.9°F -85.8°F-65.4°F
Winds Calm -Calm - Calm Calm Calm Calm
Wind Gusts 0.6 mph1.0 mph -- --
Humidity 39% 11% 30%
Pressure 29.35 in993.90 in 29.20 in988.80 in -
Precipitation 1.23 in31.20 in - -
Hour Temp Dew Point Humidity Winds Wind Gusts Pressure Precip Precip Rate Daily Precip Total
12:01 AM 69.1°F20.6°C 14.4°F-9.8°C 12% Calm Calm -- 29.22 in989.5 mb 0.12 in3.0 mm 7.38 in187.5 mm 0.12 in3.0 mm
12:16 AM 69.3°F20.7°C 18.0°F-7.8°C 14% Calm Calm -- 29.22 in989.5 mb 0.05 in1.3 mm 0.00 in0.0 mm 0.12 in3.0 mm
12:31 AM 68.9°F20.5°C 20.8°F-6.2°C 16% Calm Calm -- 29.21 in989.2 mb 0.05 in1.3 mm 0.00 in0.0 mm 0.12 in3.0 mm
12:46 AM 69.1°F20.6°C 23.7°F-4.6°C 18% Calm Calm -- 29.20 in988.8 mb 0.05 in1.3 mm 0.00 in0.0 mm 0.12 in3.0 mm
01:01 AM 69.3°F20.7°C 27.6°F-2.4°C 21% Calm Calm -- 29.21 in989.2 mb 0.05 in1.3 mm 0.00 in0.0 mm 0.12 in3.0 mm
01:16 AM 69.1°F20.6°C 30.7°F-0.7°C 24% Calm Calm -- 29.22 in989.5 mb 0.00 in0.0 mm 0.00 in0.0 mm 0.12 in3.0 mm
01:31 AM 69.3°F20.7°C 32.8°F0.4°C 26% Calm Calm -- 29.22 in989.5 mb 0.00 in0.0 mm 0.00 in0.0 mm 0.12 in3.0 mm
01:46 AM 69.1°F20.6°C 34.5°F1.4°C 28% Calm Calm -- 29.23 in989.8 mb 0.00 in0.0 mm 0.00 in0.0 mm 0.12 in3.0 mm
02:01 AM 69.1°F20.6°C 36.2°F2.3°C 30% Calm Calm -- 29.23 in989.8 mb 0.00 in0.0 mm 0.00 in0.0 mm 0.12 in3.0 mm
02:16 AM 69.1°F20.6°C 37.9°F3.3°C 32% Calm Calm -- 29.23 in989.8 mb 0.00 in0.0 mm 0.00 in0.0 mm 0.12 in3.0 mm
02:31 AM 68.7°F20.4°C 37.6°F3.1°C 32% Calm Calm -- 29.23 in989.8 mb 0.00 in0.0 mm 0.00 in0.0 mm 0.12 in3.0 mm
02:46 AM 68.9°F20.5°C 38.5°F3.6°C 33% Calm Calm -- 29.23 in989.8 mb 0.00 in0.0 mm 0.00 in0.0 mm 0.12 in3.0 mm
03:01 AM 68.5°F20.3°C 39.0°F3.9°C 34% Calm Calm -- 29.23 in989.8 mb 0.00 in0.0 mm 0.00 in0.0 mm 0.12 in3.0 mm
03:16 AM 68.9°F20.5°C 40.0°F4.4°C 35% Calm Calm -- 29.23 in989.8 mb 0.00 in0.0 mm 0.00 in0.0 mm 0.12 in3.0 mm
03:31 AM 68.7°F20.4°C 40.6°F4.8°C 36% Calm Calm -- 29.23 in989.8 mb 0.00 in0.0 mm 0.00 in0.0 mm 0.12 in3.0 mm
03:46 AM 68.5°F20.3°C 40.4°F4.7°C 36% Calm Calm -- 29.23 in989.8 mb 0.00 in0.0 mm 0.00 in0.0 mm 0.12 in3.0 mm
04:01 AM 68.5°F20.3°C 41.1°F5.1°C 37% Calm Calm -- 29.24 in990.2 mb 0.00 in0.0 mm 0.00 in0.0 mm 0.12 in3.0 mm
04:16 AM 68.4°F20.2°C 41.0°F5.0°C 37% Calm Calm -- 29.24 in990.2 mb 0.00 in0.0 mm 0.00 in0.0 mm 0.12 in3.0 mm
04:31 AM 68.7°F20.4°C 42.0°F5.6°C 38% Calm Calm -- 29.24 in990.2 mb 0.00 in0.0 mm 0.00 in0.0 mm 0.12 in3.0 mm
04:46 AM 68.5°F20.3°C 41.8°F5.4°C 38% Calm Calm -- 29.24 in990.2 mb 0.00 in0.0 mm 0.00 in0.0 mm 0.12 in3.0 mm
05:01 AM 68.7°F20.4°C 42.0°F5.6°C 38% Calm Calm -- 29.24 in990.2 mb 0.00 in0.0 mm 0.00 in0.0 mm 0.12 in3.0 mm
05:16 AM 68.4°F20.2°C 41.7°F5.4°C 38% Calm Calm -- 29.25 in990.5 mb 0.00 in0.0 mm 0.00 in0.0 mm 0.12 in3.0 mm
05:31 AM 68.5°F20.3°C 42.5°F5.8°C 39% Calm Calm -- 29.25 in990.5 mb 0.00 in0.0 mm 0.00 in0.0 mm 0.12 in3.0 mm
05:46 AM 68.4°F20.2°C 42.3°F5.7°C 39% Calm Calm -- 29.25 in990.5 mb 0.00 in0.0 mm 0.00 in0.0 mm 0.12 in3.0 mm
06:01 AM 68.4°F20.2°C 42.3°F5.7°C 39% Calm Calm -- 29.26 in990.9 mb 0.00 in0.0 mm 0.00 in0.0 mm 0.12 in3.0 mm
06:16 AM 68.5°F20.3°C 42.5°F5.8°C 39% Calm Calm -- 29.26 in990.9 mb 0.00 in0.0 mm 0.00 in0.0 mm 0.12 in3.0 mm
06:31 AM 68.9°F20.5°C 42.8°F6.0°C 39% Calm Calm -- 29.26 in990.9 mb 0.00 in0.0 mm 0.00 in0.0 mm 0.12 in3.0 mm
06:46 AM 69.1°F20.6°C 42.3°F5.7°C 38% Calm Calm -- 29.27 in991.2 mb 0.00 in0.0 mm 0.00 in0.0 mm 0.12 in3.0 mm
07:01 AM 69.1°F20.6°C 42.3°F5.7°C 38% Calm Calm -- 29.27 in991.2 mb 0.00 in0.0 mm 0.00 in0.0 mm 0.12 in3.0 mm
07:16 AM 69.6°F20.9°C 42.8°F6.0°C 38% Calm Calm -- 29.27 in991.2 mb 0.00 in0.0 mm 0.00 in0.0 mm 0.12 in3.0 mm
07:31 AM 70.3°F21.3°C 42.7°F5.9°C 37% Calm Calm -- 29.27 in991.2 mb 0.00 in0.0 mm 0.00 in0.0 mm 0.12 in3.0 mm
07:46 AM 71.8°F22.1°C 43.3°F6.3°C 36% Calm Calm -- 29.28 in991.5 mb 0.00 in0.0 mm 0.00 in0.0 mm 0.12 in3.0 mm
08:01 AM 72.9°F22.7°C 40.4°F4.7°C 31% Calm Calm -- 29.28 in991.5 mb 0.00 in0.0 mm 0.00 in0.0 mm 0.12 in3.0 mm
08:16 AM 74.1°F23.4°C 26.5°F-3.1°C 17% Calm Calm -- 29.28 in991.5 mb 0.00 in0.0 mm 0.00 in0.0 mm 0.12 in3.0 mm
08:31 AM 77.4°F25.2°C -165.1°F-109.5°C - Calm Calm -- 29.28 in991.5 mb 0.00 in0.0 mm 0.00 in0.0 mm 0.12 in3.0 mm
08:46 AM 80.1°F26.7°C -164.8°F-109.3°C - Calm Calm -- 29.28 in991.5 mb 0.00 in0.0 mm 0.00 in0.0 mm 0.12 in3.0 mm
09:01 AM 78.4°F25.8°C -165.0°F-109.4°C - Calm Calm 0.6 mph1.0 kmh 29.28 in991.5 mb 0.00 in0.0 mm 0.00 in0.0 mm 0.12 in3.0 mm
09:16 AM 79.0°F26.1°C -164.9°F-109.4°C - Calm Calm -- 29.28 in991.5 mb 0.00 in0.0 mm 0.00 in0.0 mm 0.12 in3.0 mm
09:31 AM 80.8°F27.1°C -164.7°F-109.3°C - Calm Calm 0.6 mph1.0 kmh 29.28 in991.5 mb 0.00 in0.0 mm 0.00 in0.0 mm 0.12 in3.0 mm
09:46 AM 80.1°F26.7°C -164.8°F-109.3°C - Calm Calm -- 29.28 in991.5 mb 0.00 in0.0 mm 0.00 in0.0 mm 0.12 in3.0 mm
10:01 AM 80.8°F27.1°C -164.7°F-109.3°C - Calm Calm -- 29.28 in991.5 mb 0.00 in0.0 mm 0.00 in0.0 mm 0.12 in3.0 mm
10:16 AM 82.9°F28.3°C -164.5°F-109.2°C - Calm Calm -- 29.27 in991.2 mb 0.00 in0.0 mm 0.00 in0.0 mm 0.12 in3.0 mm
10:31 AM 83.8°F28.8°C -164.4°F-109.1°C - Calm Calm 0.6 mph1.0 kmh 29.28 in991.5 mb 0.00 in0.0 mm 0.00 in0.0 mm 0.12 in3.0 mm
10:46 AM 83.1°F28.4°C -164.5°F-109.2°C - Calm Calm 0.6 mph1.0 kmh 29.28 in991.5 mb 0.00 in0.0 mm 0.00 in0.0 mm 0.12 in3.0 mm
11:01 AM 82.6°F28.1°C -164.5°F-109.2°C - Calm Calm 0.6 mph1.0 kmh 29.28 in991.5 mb 0.00 in0.0 mm 0.00 in0.0 mm 0.12 in3.0 mm
11:16 AM 82.6°F28.1°C -164.5°F-109.2°C - Calm Calm 0.6 mph1.0 kmh 29.28 in991.5 mb 0.00 in0.0 mm 0.00 in0.0 mm 0.12 in3.0 mm
11:31 AM 82.8°F28.2°C -164.5°F-109.2°C - Calm Calm 0.6 mph1.0 kmh 29.28 in991.5 mb 0.00 in0.0 mm 0.00 in0.0 mm 0.12 in3.0 mm
11:46 AM 83.1°F28.4°C -164.5°F-109.2°C - Calm Calm -- 29.28 in991.5 mb 0.00 in0.0 mm 0.00 in0.0 mm 0.12 in3.0 mm
12:01 PM 83.7°F28.7°C -164.4°F-109.1°C - Calm Calm -- 29.28 in991.5 mb 0.00 in0.0 mm 0.00 in0.0 mm 0.12 in3.0 mm
12:16 PM 83.8°F28.8°C -164.4°F-109.1°C - Calm Calm -- 29.28 in991.5 mb 0.00 in0.0 mm 0.00 in0.0 mm 0.12 in3.0 mm
12:31 PM 83.8°F28.8°C -164.4°F-109.1°C - Calm Calm -- 29.28 in991.5 mb 0.00 in0.0 mm 0.00 in0.0 mm 0.12 in3.0 mm
12:46 PM 84.7°F29.3°C -164.3°F-109.1°C - Calm Calm -- 29.28 in991.5 mb 0.00 in0.0 mm 0.00 in0.0 mm 0.12 in3.0 mm
01:01 PM 83.8°F28.8°C -164.4°F-109.1°C - Calm Calm -- 29.27 in991.2 mb 0.00 in0.0 mm 0.00 in0.0 mm 0.12 in3.0 mm
01:16 PM 85.8°F29.9°C -164.2°F-109.0°C - Calm Calm -- 29.27 in991.2 mb 0.00 in0.0 mm 0.00 in0.0 mm 0.12 in3.0 mm
01:31 PM 84.6°F29.2°C -164.3°F-109.1°C - Calm Calm -- 29.27 in991.2 mb 0.00 in0.0 mm 0.00 in0.0 mm 0.12 in3.0 mm
01:46 PM 84.7°F29.3°C -164.3°F-109.1°C - Calm Calm -- 29.26 in990.9 mb 0.00 in0.0 mm 0.00 in0.0 mm 0.12 in3.0 mm
02:01 PM 85.8°F29.9°C -164.2°F-109.0°C - Calm Calm -- 29.27 in991.2 mb 0.00 in0.0 mm 0.00 in0.0 mm 0.12 in3.0 mm
02:16 PM 86.2°F30.1°C -164.2°F-109.0°C - Calm Calm -- 29.27 in991.2 mb 0.00 in0.0 mm 0.00 in0.0 mm 0.12 in3.0 mm
02:31 PM 86.4°F30.2°C -164.2°F-109.0°C - Calm Calm -- 29.27 in991.2 mb 0.00 in0.0 mm 0.00 in0.0 mm 0.12 in3.0 mm
02:46 PM 86.7°F30.4°C -164.1°F-108.9°C - Calm Calm -- 29.27 in991.2 mb 0.00 in0.0 mm 0.00 in0.0 mm 0.12 in3.0 mm
03:01 PM 86.5°F30.3°C -164.1°F-108.9°C - Calm Calm -- 29.26 in990.9 mb 0.00 in0.0 mm 0.00 in0.0 mm 0.12 in3.0 mm
03:16 PM 86.5°F30.3°C -164.1°F-108.9°C - Calm Calm -- 29.27 in991.2 mb 0.00 in0.0 mm 0.00 in0.0 mm 0.12 in3.0 mm
03:31 PM 86.9°F30.5°C -164.1°F-108.9°C - Calm Calm -- 29.26 in990.9 mb 0.00 in0.0 mm 0.00 in0.0 mm 0.12 in3.0 mm
03:46 PM 86.7°F30.4°C -164.1°F-108.9°C - Calm Calm -- 29.27 in991.2 mb 0.00 in0.0 mm 0.00 in0.0 mm 0.12 in3.0 mm
04:01 PM 86.7°F30.4°C -164.1°F-108.9°C - Calm Calm -- 29.27 in991.2 mb 0.00 in0.0 mm 0.00 in0.0 mm 0.12 in3.0 mm
04:16 PM 86.4°F30.2°C -164.2°F-109.0°C - Calm Calm -- 29.28 in991.5 mb 0.00 in0.0 mm 0.00 in0.0 mm 0.12 in3.0 mm
04:31 PM 81.5°F27.5°C -164.7°F-109.3°C - Calm Calm -- 29.29 in991.9 mb 0.00 in0.0 mm 0.00 in0.0 mm 0.12 in3.0 mm
04:46 PM 79.0°F26.1°C -164.9°F-109.4°C - Calm Calm -- 29.31 in992.6 mb 0.00 in0.0 mm 0.00 in0.0 mm 0.12 in3.0 mm
05:01 PM 76.8°F24.9°C -165.1°F-109.5°C - Calm Calm -- 29.30 in992.2 mb 0.00 in0.0 mm 0.00 in0.0 mm 0.12 in3.0 mm
05:16 PM 74.3°F23.5°C -165.4°F-109.7°C - Calm Calm -- 29.30 in992.2 mb 0.02 in0.5 mm 0.10 in2.5 mm 0.15 in3.8 mm
05:31 PM 73.9°F23.3°C -165.4°F-109.7°C - Calm Calm -- 29.31 in992.6 mb 0.02 in0.5 mm 0.00 in0.0 mm 0.15 in3.8 mm
05:46 PM 74.3°F23.5°C -165.4°F-109.7°C - Calm Calm -- 29.32 in992.9 mb 0.02 in0.5 mm 0.00 in0.0 mm 0.15 in3.8 mm
06:01 PM 74.5°F23.6°C -165.4°F-109.7°C - Calm Calm -- 29.32 in992.9 mb 0.02 in0.5 mm 0.00 in0.0 mm 0.15 in3.8 mm
06:16 PM 74.3°F23.5°C -165.4°F-109.7°C - Calm Calm -- 29.31 in992.6 mb 0.00 in0.0 mm 0.00 in0.0 mm 0.15 in3.8 mm
06:31 PM 74.3°F23.5°C -165.4°F-109.7°C - Calm Calm -- 29.31 in992.6 mb 0.00 in0.0 mm 0.00 in0.0 mm 0.15 in3.8 mm
06:46 PM 74.3°F23.5°C -165.4°F-109.7°C - Calm Calm -- 29.31 in992.6 mb 0.00 in0.0 mm 0.00 in0.0 mm 0.15 in3.8 mm
07:01 PM 74.3°F23.5°C -165.4°F-109.7°C - Calm Calm -- 29.32 in992.9 mb 0.00 in0.0 mm 0.00 in0.0 mm 0.15 in3.8 mm
07:16 PM 73.8°F23.2°C -165.4°F-109.7°C - Calm Calm -- 29.32 in992.9 mb 0.00 in0.0 mm 0.00 in0.0 mm 0.15 in3.8 mm
07:31 PM 73.6°F23.1°C -165.4°F-109.7°C - Calm Calm -- 29.33 in993.2 mb 0.00 in0.0 mm 0.00 in0.0 mm 0.15 in3.8 mm
07:46 PM 73.6°F23.1°C -165.4°F-109.7°C - Calm Calm -- 29.33 in993.2 mb 0.00 in0.0 mm 0.00 in0.0 mm 0.15 in3.8 mm
08:01 PM 73.6°F23.1°C -165.4°F-109.7°C - Calm Calm -- 29.34 in993.6 mb 0.00 in0.0 mm 0.00 in0.0 mm 0.15 in3.8 mm
08:16 PM 73.4°F23.0°C -165.5°F-109.7°C - Calm Calm -- 29.33 in993.2 mb 0.00 in0.0 mm 0.00 in0.0 mm 0.15 in3.8 mm
08:31 PM 73.2°F22.9°C -165.5°F-109.7°C - Calm Calm -- 29.34 in993.6 mb 0.00 in0.0 mm 0.00 in0.0 mm 0.15 in3.8 mm
08:46 PM 73.2°F22.9°C -165.5°F-109.7°C - Calm Calm -- 29.34 in993.6 mb 0.00 in0.0 mm 0.00 in0.0 mm 0.15 in3.8 mm
09:01 PM 73.4°F23.0°C -165.5°F-109.7°C - Calm Calm -- 29.34 in993.6 mb 0.00 in0.0 mm 0.00 in0.0 mm 0.15 in3.8 mm
09:16 PM 72.5°F22.5°C -165.6°F-109.8°C - Calm Calm -- 29.35 in993.9 mb 0.09 in2.3 mm 0.34 in8.6 mm 0.23 in5.8 mm
09:31 PM 70.9°F21.6°C -165.7°F-109.8°C - Calm Calm -- 29.34 in993.6 mb 0.23 in5.8 mm 0.59 in15.0 mm 0.38 in9.7 mm
09:46 PM 70.5°F21.4°C -165.7°F-109.8°C - Calm Calm -- 29.34 in993.6 mb 0.25 in6.4 mm 0.05 in1.3 mm 0.39 in9.9 mm
10:01 PM 70.5°F21.4°C -165.7°F-109.8°C - Calm Calm -- 29.34 in993.6 mb 0.25 in6.4 mm 0.00 in0.0 mm 0.39 in9.9 mm
10:16 PM 70.2°F21.2°C -165.8°F-109.9°C - Calm Calm -- 29.34 in993.6 mb 0.00 in0.0 mm 0.00 in0.0 mm 0.39 in9.9 mm
10:31 PM 70.3°F21.3°C -165.8°F-109.9°C - Calm Calm -- 29.34 in993.6 mb 0.00 in0.0 mm 0.00 in0.0 mm 0.39 in9.9 mm
10:46 PM 70.0°F21.1°C -165.8°F-109.9°C - Calm Calm -- 29.34 in993.6 mb 0.00 in0.0 mm 0.00 in0.0 mm 0.39 in9.9 mm
11:01 PM 70.2°F21.2°C 13.3°F-10.4°C 11% Calm Calm -- 29.34 in993.6 mb 0.00 in0.0 mm 0.00 in0.0 mm 0.39 in9.9 mm
11:16 PM 70.3°F21.3°C 17.2°F-8.2°C 13% Calm Calm -- 29.34 in993.6 mb 0.00 in0.0 mm 0.00 in0.0 mm 0.39 in9.9 mm
11:31 PM 70.3°F21.3°C 20.5°F-6.4°C 15% Calm Calm -- 29.34 in993.6 mb 0.00 in0.0 mm 0.00 in0.0 mm 0.39 in9.9 mm
11:46 PM 70.5°F21.4°C 23.6°F-4.7°C 17% Calm Calm -- 29.34 in993.6 mb 0.00 in0.0 mm 0.00 in0.0 mm 0.39 in9.9 mm